sensor_id;sensor_type;location;lat;lon;timestamp;P1;durP1;ratioP1;P2;durP2;ratioP2
76566;SDS011;65428;53.194;6.132;2023-05-10T01:15:28;21.87;;;14.90;;
76566;SDS011;65428;53.194;6.132;2023-05-10T02:01:36;77.65;;;32.35;;
76566;SDS011;65428;53.194;6.132;2023-05-10T02:21:26;104.18;;;36.35;;
76566;SDS011;65428;53.194;6.132;2023-05-10T02:28:30;76.75;;;34.60;;
76566;SDS011;65428;53.194;6.132;2023-05-10T02:34:01;78.30;;;35.73;;
76566;SDS011;65428;53.194;6.132;2023-05-10T02:50:28;87.50;;;37.10;;
76566;SDS011;65428;53.194;6.132;2023-05-10T03:33:49;16.87;;;13.10;;
76566;SDS011;65428;53.194;6.132;2023-05-10T03:36:23;22.05;;;15.43;;
76566;SDS011;65428;53.194;6.132;2023-05-10T03:42:26;13.05;;;11.75;;
76566;SDS011;65428;53.194;6.132;2023-05-10T04:50:06;72.55;;;29.33;;
76566;SDS011;65428;53.194;6.132;2023-05-10T05:05:49;104.33;;;34.37;;
76566;SDS011;65428;53.194;6.132;2023-05-10T06:00:21;14.18;;;9.82;;
76566;SDS011;65428;53.194;6.132;2023-05-10T06:07:04;12.57;;;9.18;;
76566;SDS011;65428;53.194;6.132;2023-05-10T06:09:36;10.75;;;8.48;;
76566;SDS011;65428;53.194;6.132;2023-05-10T08:00:23;15.48;;;10.18;;
76566;SDS011;65428;53.194;6.132;2023-05-10T08:06:56;13.77;;;9.90;;
76566;SDS011;65428;53.194;6.132;2023-05-10T08:14:57;14.97;;;8.07;;
76566;SDS011;65428;53.194;6.132;2023-05-10T08:17:54;14.57;;;9.30;;
76566;SDS011;65428;53.194;6.132;2023-05-10T08:20:32;7.60;;;5.85;;
76566;SDS011;65428;53.194;6.132;2023-05-10T08:22:58;13.27;;;8.07;;
76566;SDS011;65428;53.194;6.132;2023-05-10T08:25:24;12.33;;;7.47;;
76566;SDS011;65428;53.194;6.132;2023-05-10T08:27:57;11.32;;;7.20;;
76566;SDS011;65428;53.194;6.132;2023-05-10T08:34:05;8.52;;;5.90;;
76566;SDS011;65428;53.194;6.132;2023-05-10T08:36:33;10.57;;;6.35;;
76566;SDS011;65428;53.194;6.132;2023-05-10T08:39:10;9.57;;;5.90;;
76566;SDS011;65428;53.194;6.132;2023-05-10T08:41:36;9.02;;;6.50;;
76566;SDS011;65428;53.194;6.132;2023-05-10T08:44:04;10.52;;;6.50;;
76566;SDS011;65428;53.194;6.132;2023-05-10T08:49:13;9.23;;;6.68;;
76566;SDS011;65428;53.194;6.132;2023-05-10T08:51:50;11.90;;;8.40;;
76566;SDS011;65428;53.194;6.132;2023-05-10T08:54:20;9.90;;;7.83;;
76566;SDS011;65428;53.194;6.132;2023-05-10T08:56:46;10.40;;;7.47;;
76566;SDS011;65428;53.194;6.132;2023-05-10T08:59:12;11.52;;;8.07;;
76566;SDS011;65428;53.194;6.132;2023-05-10T09:01:39;11.43;;;8.37;;
76566;SDS011;65428;53.194;6.132;2023-05-10T09:04:07;8.35;;;6.80;;
76566;SDS011;65428;53.194;6.132;2023-05-10T09:06:33;7.87;;;5.80;;
76566;SDS011;65428;53.194;6.132;2023-05-10T09:09:02;8.55;;;5.35;;
76566;SDS011;65428;53.194;6.132;2023-05-10T09:11:28;7.37;;;5.43;;
76566;SDS011;65428;53.194;6.132;2023-05-10T09:13:57;7.90;;;5.15;;
76566;SDS011;65428;53.194;6.132;2023-05-10T09:16:23;8.25;;;4.93;;
76566;SDS011;65428;53.194;6.132;2023-05-10T09:18:49;7.35;;;4.93;;
76566;SDS011;65428;53.194;6.132;2023-05-10T09:21:14;7.60;;;5.10;;
76566;SDS011;65428;53.194;6.132;2023-05-10T09:23:47;8.77;;;5.30;;
76566;SDS011;65428;53.194;6.132;2023-05-10T09:26:15;5.72;;;4.80;;
76566;SDS011;65428;53.194;6.132;2023-05-10T09:28:52;7.25;;;5.85;;
76566;SDS011;65428;53.194;6.132;2023-05-10T09:31:20;8.30;;;5.30;;
76566;SDS011;65428;53.194;6.132;2023-05-10T09:33:46;6.50;;;5.80;;
76566;SDS011;65428;53.194;6.132;2023-05-10T09:36:17;5.35;;;4.75;;
76566;SDS011;65428;53.194;6.132;2023-05-10T09:39:29;8.80;;;6.20;;
76566;SDS011;65428;53.194;6.132;2023-05-10T09:41:58;7.05;;;6.20;;
76566;SDS011;65428;53.194;6.132;2023-05-10T09:44:28;7.22;;;6.43;;
76566;SDS011;65428;53.194;6.132;2023-05-10T09:46:55;8.52;;;7.18;;
76566;SDS011;65428;53.194;6.132;2023-05-10T09:49:21;7.47;;;6.60;;
76566;SDS011;65428;53.194;6.132;2023-05-10T09:51:59;7.70;;;6.93;;
76566;SDS011;65428;53.194;6.132;2023-05-10T09:54:31;7.97;;;6.88;;
76566;SDS011;65428;53.194;6.132;2023-05-10T09:56:57;9.30;;;7.68;;
76566;SDS011;65428;53.194;6.132;2023-05-10T09:59:24;8.02;;;7.20;;
76566;SDS011;65428;53.194;6.132;2023-05-10T10:01:52;8.23;;;6.97;;
76566;SDS011;65428;53.194;6.132;2023-05-10T10:04:21;8.50;;;7.13;;
76566;SDS011;65428;53.194;6.132;2023-05-10T10:07:03;9.40;;;7.53;;
76566;SDS011;65428;53.194;6.132;2023-05-10T10:09:30;10.73;;;8.40;;
76566;SDS011;65428;53.194;6.132;2023-05-10T10:11:56;10.00;;;8.65;;
76566;SDS011;65428;53.194;6.132;2023-05-10T10:14:22;10.33;;;8.87;;
76566;SDS011;65428;53.194;6.132;2023-05-10T10:16:51;9.43;;;8.43;;
76566;SDS011;65428;53.194;6.132;2023-05-10T10:19:20;10.40;;;8.77;;
76566;SDS011;65428;53.194;6.132;2023-05-10T10:21:47;11.60;;;9.63;;
76566;SDS011;65428;53.194;6.132;2023-05-10T10:24:18;11.65;;;10.40;;
76566;SDS011;65428;53.194;6.132;2023-05-10T10:26:47;14.10;;;11.98;;
76566;SDS011;65428;53.194;6.132;2023-05-10T10:32:19;17.95;;;12.57;;
76566;SDS011;65428;53.194;6.132;2023-05-10T10:34:53;16.42;;;12.63;;
76566;SDS011;65428;53.194;6.132;2023-05-10T10:37:22;15.48;;;11.90;;
76566;SDS011;65428;53.194;6.132;2023-05-10T10:39:48;14.82;;;11.57;;
76566;SDS011;65428;53.194;6.132;2023-05-10T10:42:15;13.27;;;10.63;;
76566;SDS011;65428;53.194;6.132;2023-05-10T10:45:11;14.13;;;10.75;;
76566;SDS011;65428;53.194;6.132;2023-05-10T10:47:38;13.70;;;9.65;;
76566;SDS011;65428;53.194;6.132;2023-05-10T10:50:05;11.63;;;9.27;;
76566;SDS011;65428;53.194;6.132;2023-05-10T10:55:17;14.32;;;10.15;;
76566;SDS011;65428;53.194;6.132;2023-05-10T10:57:54;11.90;;;9.18;;
76566;SDS011;65428;53.194;6.132;2023-05-10T11:02:56;9.65;;;7.70;;
76566;SDS011;65428;53.194;6.132;2023-05-10T11:08:00;10.48;;;7.57;;
76566;SDS011;65428;53.194;6.132;2023-05-10T11:10:34;8.63;;;7.05;;
76566;SDS011;65428;53.194;6.132;2023-05-10T11:13:01;9.00;;;7.63;;
76566;SDS011;65428;53.194;6.132;2023-05-10T11:15:34;9.73;;;7.80;;
76566;SDS011;65428;53.194;6.132;2023-05-10T11:18:17;10.25;;;8.13;;
76566;SDS011;65428;53.194;6.132;2023-05-10T11:20:46;10.50;;;8.18;;
76566;SDS011;65428;53.194;6.132;2023-05-10T11:23:18;10.18;;;7.75;;
76566;SDS011;65428;53.194;6.132;2023-05-10T11:25:45;9.63;;;7.05;;
76566;SDS011;65428;53.194;6.132;2023-05-10T11:28:17;10.05;;;7.18;;
76566;SDS011;65428;53.194;6.132;2023-05-10T11:30:52;10.30;;;7.68;;
76566;SDS011;65428;53.194;6.132;2023-05-10T11:34:04;10.32;;;7.88;;
76566;SDS011;65428;53.194;6.132;2023-05-10T11:36:32;8.55;;;7.65;;
76566;SDS011;65428;53.194;6.132;2023-05-10T11:39:28;10.27;;;8.77;;
76566;SDS011;65428;53.194;6.132;2023-05-10T11:41:58;9.27;;;8.37;;
76566;SDS011;65428;53.194;6.132;2023-05-10T11:44:34;11.00;;;8.35;;
76566;SDS011;65428;53.194;6.132;2023-05-10T11:47:01;9.23;;;7.53;;
76566;SDS011;65428;53.194;6.132;2023-05-10T11:49:44;8.18;;;7.38;;
76566;SDS011;65428;53.194;6.132;2023-05-10T11:52:34;10.77;;;8.13;;
76566;SDS011;65428;53.194;6.132;2023-05-10T11:55:05;9.90;;;7.85;;
76566;SDS011;65428;53.194;6.132;2023-05-10T11:57:31;9.35;;;8.40;;
76566;SDS011;65428;53.194;6.132;2023-05-10T12:00:41;9.23;;;8.25;;
76566;SDS011;65428;53.194;6.132;2023-05-10T12:03:50;9.05;;;8.15;;
76566;SDS011;65428;53.194;6.132;2023-05-10T12:06:35;9.18;;;7.95;;
76566;SDS011;65428;53.194;6.132;2023-05-10T12:09:08;10.00;;;7.85;;
76566;SDS011;65428;53.194;6.132;2023-05-10T12:14:53;8.43;;;7.55;;
76566;SDS011;65428;53.194;6.132;2023-05-10T12:17:45;7.97;;;7.07;;
76566;SDS011;65428;53.194;6.132;2023-05-10T12:20:29;8.73;;;7.18;;
76566;SDS011;65428;53.194;6.132;2023-05-10T12:22:58;7.78;;;6.90;;
76566;SDS011;65428;53.194;6.132;2023-05-10T12:25:30;7.35;;;6.07;;
76566;SDS011;65428;53.194;6.132;2023-05-10T12:28:03;7.63;;;6.40;;
76566;SDS011;65428;53.194;6.132;2023-05-10T12:30:31;9.82;;;7.22;;
76566;SDS011;65428;53.194;6.132;2023-05-10T12:33:01;6.78;;;6.13;;
76566;SDS011;65428;53.194;6.132;2023-05-10T12:41:03;9.70;;;8.38;;
76566;SDS011;65428;53.194;6.132;2023-05-10T12:43:33;12.20;;;8.80;;
76566;SDS011;65428;53.194;6.132;2023-05-10T12:46:38;9.80;;;8.65;;
76566;SDS011;65428;53.194;6.132;2023-05-10T12:48:59;9.68;;;8.68;;
76566;SDS011;65428;53.194;6.132;2023-05-10T12:52:26;9.40;;;8.50;;
76566;SDS011;65428;53.194;6.132;2023-05-10T12:54:57;9.27;;;8.23;;
76566;SDS011;65428;53.194;6.132;2023-05-10T12:57:31;9.10;;;8.20;;
76566;SDS011;65428;53.194;6.132;2023-05-10T13:00:02;9.55;;;8.15;;
76566;SDS011;65428;53.194;6.132;2023-05-10T13:02:31;10.48;;;9.32;;
76566;SDS011;65428;53.194;6.132;2023-05-10T13:05:52;9.60;;;8.65;;
76566;SDS011;65428;53.194;6.132;2023-05-10T13:12:26;10.23;;;9.18;;
76566;SDS011;65428;53.194;6.132;2023-05-10T13:15:07;10.93;;;9.05;;
76566;SDS011;65428;53.194;6.132;2023-05-10T15:17:46;4.35;;;4.00;;
76566;SDS011;65428;53.194;6.132;2023-05-10T15:23:23;4.85;;;4.45;;
76566;SDS011;65428;53.194;6.132;2023-05-10T15:26:04;5.13;;;4.73;;
76566;SDS011;65428;53.194;6.132;2023-05-10T15:35:45;4.00;;;3.60;;
76566;SDS011;65428;53.194;6.132;2023-05-10T15:41:45;4.60;;;4.20;;
76566;SDS011;65428;53.194;6.132;2023-05-10T15:47:06;7.20;;;6.50;;
76566;SDS011;65428;53.194;6.132;2023-05-10T15:50:10;6.95;;;6.25;;
76566;SDS011;65428;53.194;6.132;2023-05-10T15:53:19;8.65;;;6.03;;
76566;SDS011;65428;53.194;6.132;2023-05-10T15:55:50;6.93;;;6.28;;
76566;SDS011;65428;53.194;6.132;2023-05-10T16:00:56;7.28;;;6.68;;
76566;SDS011;65428;53.194;6.132;2023-05-10T16:04:35;7.22;;;6.63;;
76566;SDS011;65428;53.194;6.132;2023-05-10T16:07:09;8.07;;;7.38;;
76566;SDS011;65428;53.194;6.132;2023-05-10T16:09:37;8.50;;;7.70;;
76566;SDS011;65428;53.194;6.132;2023-05-10T16:14:55;8.90;;;8.10;;
76566;SDS011;65428;53.194;6.132;2023-05-10T16:17:21;8.80;;;8.00;;
76566;SDS011;65428;53.194;6.132;2023-05-10T16:19:52;8.68;;;7.97;;
76566;SDS011;65428;53.194;6.132;2023-05-10T16:22:18;9.03;;;8.23;;
76566;SDS011;65428;53.194;6.132;2023-05-10T16:27:48;8.48;;;7.75;;
76566;SDS011;65428;53.194;6.132;2023-05-10T16:30:22;8.32;;;7.63;;
76566;SDS011;65428;53.194;6.132;2023-05-10T16:33:17;8.05;;;7.32;;
76566;SDS011;65428;53.194;6.132;2023-05-10T16:35:54;6.43;;;5.93;;
76566;SDS011;65428;53.194;6.132;2023-05-10T16:38:20;6.82;;;6.22;;
76566;SDS011;65428;53.194;6.132;2023-05-10T16:41:08;6.57;;;5.85;;
76566;SDS011;65428;53.194;6.132;2023-05-10T16:47:39;7.30;;;6.38;;
76566;SDS011;65428;53.194;6.132;2023-05-10T16:50:05;6.95;;;6.35;;
76566;SDS011;65428;53.194;6.132;2023-05-10T16:52:40;6.90;;;6.40;;
76566;SDS011;65428;53.194;6.132;2023-05-10T16:55:08;8.02;;;7.28;;
76566;SDS011;65428;53.194;6.132;2023-05-10T16:57:37;7.97;;;7.18;;
76566;SDS011;65428;53.194;6.132;2023-05-10T17:06:12;8.40;;;7.70;;
76566;SDS011;65428;53.194;6.132;2023-05-10T17:08:38;8.60;;;7.72;;
76566;SDS011;65428;53.194;6.132;2023-05-10T17:11:33;8.50;;;7.80;;
76566;SDS011;65428;53.194;6.132;2023-05-10T17:17:39;7.93;;;7.00;;
76566;SDS011;65428;53.194;6.132;2023-05-10T17:23:07;8.98;;;8.07;;
76566;SDS011;65428;53.194;6.132;2023-05-10T17:25:33;9.27;;;8.37;;
76566;SDS011;65428;53.194;6.132;2023-05-10T17:27:59;9.57;;;8.68;;
76566;SDS011;65428;53.194;6.132;2023-05-10T17:30:25;9.82;;;9.02;;
76566;SDS011;65428;53.194;6.132;2023-05-10T17:36:09;9.35;;;8.52;;
76566;SDS011;65428;53.194;6.132;2023-05-10T17:45:11;8.27;;;7.57;;
76566;SDS011;65428;53.194;6.132;2023-05-10T17:50:25;8.35;;;7.60;;
76566;SDS011;65428;53.194;6.132;2023-05-10T17:52:51;9.20;;;8.32;;
76566;SDS011;65428;53.194;6.132;2023-05-10T17:55:20;9.93;;;8.93;;
76566;SDS011;65428;53.194;6.132;2023-05-10T17:57:46;9.43;;;8.52;;
76566;SDS011;65428;53.194;6.132;2023-05-10T18:03:25;8.53;;;7.67;;
76566;SDS011;65428;53.194;6.132;2023-05-10T18:05:50;7.82;;;7.15;;
76566;SDS011;65428;53.194;6.132;2023-05-10T18:18:23;9.40;;;8.43;;
76566;SDS011;65428;53.194;6.132;2023-05-10T18:20:49;9.43;;;8.52;;
76566;SDS011;65428;53.194;6.132;2023-05-10T18:23:20;9.45;;;8.55;;
76566;SDS011;65428;53.194;6.132;2023-05-10T18:25:49;9.65;;;8.75;;
76566;SDS011;65428;53.194;6.132;2023-05-10T18:28:15;8.90;;;8.10;;
76566;SDS011;65428;53.194;6.132;2023-05-10T18:30:59;9.90;;;8.90;;
76566;SDS011;65428;53.194;6.132;2023-05-10T18:33:25;9.88;;;8.98;;
76566;SDS011;65428;53.194;6.132;2023-05-10T18:36:01;8.85;;;8.05;;
76566;SDS011;65428;53.194;6.132;2023-05-10T18:38:46;8.90;;;8.10;;
76566;SDS011;65428;53.194;6.132;2023-05-10T18:41:28;9.30;;;8.48;;
76566;SDS011;65428;53.194;6.132;2023-05-10T18:43:54;10.10;;;9.13;;
76566;SDS011;65428;53.194;6.132;2023-05-10T18:46:30;10.50;;;9.60;;
76566;SDS011;65428;53.194;6.132;2023-05-10T18:48:55;10.63;;;9.55;;
76566;SDS011;65428;53.194;6.132;2023-05-10T18:51:23;10.40;;;9.50;;
76566;SDS011;65428;53.194;6.132;2023-05-10T18:53:50;10.17;;;9.27;;
76566;SDS011;65428;53.194;6.132;2023-05-10T18:59:11;11.00;;;10.00;;
76566;SDS011;65428;53.194;6.132;2023-05-10T19:02:22;10.52;;;9.57;;
76566;SDS011;65428;53.194;6.132;2023-05-10T19:08:07;11.63;;;10.52;;
76566;SDS011;65428;53.194;6.132;2023-05-10T19:10:33;12.07;;;10.97;;
76566;SDS011;65428;53.194;6.132;2023-05-10T19:13:02;11.17;;;10.07;;
76566;SDS011;65428;53.194;6.132;2023-05-10T19:15:45;11.20;;;10.10;;
76566;SDS011;65428;53.194;6.132;2023-05-10T19:18:11;10.80;;;9.70;;
76566;SDS011;65428;53.194;6.132;2023-05-10T19:20:39;11.40;;;10.25;;
76566;SDS011;65428;53.194;6.132;2023-05-10T19:23:04;11.07;;;10.00;;
76566;SDS011;65428;53.194;6.132;2023-05-10T19:25:30;11.70;;;10.60;;
76566;SDS011;65428;53.194;6.132;2023-05-10T19:27:58;11.40;;;10.30;;
76566;SDS011;65428;53.194;6.132;2023-05-10T19:30:24;11.13;;;10.02;;
76566;SDS011;65428;53.194;6.132;2023-05-10T19:32:50;10.30;;;9.35;;
76566;SDS011;65428;53.194;6.132;2023-05-10T19:35:16;10.68;;;9.68;;
76566;SDS011;65428;53.194;6.132;2023-05-10T19:37:42;11.57;;;10.47;;
76566;SDS011;65428;53.194;6.132;2023-05-10T19:40:14;10.10;;;9.20;;
76566;SDS011;65428;53.194;6.132;2023-05-10T19:42:41;11.40;;;10.33;;
76566;SDS011;65428;53.194;6.132;2023-05-10T19:45:07;10.65;;;9.65;;
76566;SDS011;65428;53.194;6.132;2023-05-10T19:47:33;10.90;;;9.90;;
76566;SDS011;65428;53.194;6.132;2023-05-10T19:50:00;11.48;;;10.48;;
76566;SDS011;65428;53.194;6.132;2023-05-10T19:52:26;9.80;;;8.90;;
76566;SDS011;65428;53.194;6.132;2023-05-10T19:54:52;10.15;;;9.15;;
76566;SDS011;65428;53.194;6.132;2023-05-10T19:57:18;9.70;;;8.80;;
76566;SDS011;65428;53.194;6.132;2023-05-10T19:59:44;10.02;;;9.13;;
76566;SDS011;65428;53.194;6.132;2023-05-10T20:02:10;9.53;;;8.63;;
76566;SDS011;65428;53.194;6.132;2023-05-10T20:04:36;10.10;;;9.20;;
76566;SDS011;65428;53.194;6.132;2023-05-10T20:07:01;10.40;;;9.50;;
76566;SDS011;65428;53.194;6.132;2023-05-10T20:09:27;10.60;;;9.60;;
76566;SDS011;65428;53.194;6.132;2023-05-10T20:11:53;10.80;;;9.73;;
76566;SDS011;65428;53.194;6.132;2023-05-10T20:14:18;11.57;;;10.43;;
76566;SDS011;65428;53.194;6.132;2023-05-10T20:16:44;12.65;;;11.35;;
76566;SDS011;65428;53.194;6.132;2023-05-10T20:19:10;12.63;;;11.32;;
76566;SDS011;65428;53.194;6.132;2023-05-10T20:21:36;12.40;;;11.20;;
76566;SDS011;65428;53.194;6.132;2023-05-10T20:24:02;13.03;;;11.77;;
76566;SDS011;65428;53.194;6.132;2023-05-10T20:26:27;15.57;;;13.95;;
76566;SDS011;65428;53.194;6.132;2023-05-10T20:28:53;13.48;;;12.18;;
76566;SDS011;65428;53.194;6.132;2023-05-10T20:31:19;13.77;;;12.30;;
76566;SDS011;65428;53.194;6.132;2023-05-10T20:33:44;14.07;;;12.68;;
76566;SDS011;65428;53.194;6.132;2023-05-10T20:36:10;14.07;;;11.57;;
76566;SDS011;65428;53.194;6.132;2023-05-10T20:38:36;12.57;;;11.10;;
76566;SDS011;65428;53.194;6.132;2023-05-10T20:41:01;14.40;;;11.63;;
76566;SDS011;65428;53.194;6.132;2023-05-10T20:43:27;14.68;;;11.70;;
76566;SDS011;65428;53.194;6.132;2023-05-10T20:45:53;13.30;;;11.80;;
76566;SDS011;65428;53.194;6.132;2023-05-10T20:48:19;11.68;;;10.20;;
76566;SDS011;65428;53.194;6.132;2023-05-10T20:50:45;11.82;;;10.25;;
76566;SDS011;65428;53.194;6.132;2023-05-10T20:53:11;11.75;;;10.38;;
76566;SDS011;65428;53.194;6.132;2023-05-10T20:55:38;14.27;;;11.00;;
76566;SDS011;65428;53.194;6.132;2023-05-10T20:58:04;13.98;;;10.95;;
76566;SDS011;65428;53.194;6.132;2023-05-10T21:00:30;13.25;;;10.82;;
76566;SDS011;65428;53.194;6.132;2023-05-10T21:02:55;15.18;;;10.98;;
76566;SDS011;65428;53.194;6.132;2023-05-10T21:05:21;12.97;;;10.53;;
76566;SDS011;65428;53.194;6.132;2023-05-10T21:07:47;11.32;;;10.13;;
76566;SDS011;65428;53.194;6.132;2023-05-10T21:10:13;43.20;;;12.15;;
76566;SDS011;65428;53.194;6.132;2023-05-10T21:12:39;27.50;;;13.77;;
76566;SDS011;65428;53.194;6.132;2023-05-10T21:15:05;18.10;;;12.57;;
76566;SDS011;65428;53.194;6.132;2023-05-10T21:17:31;16.27;;;13.05;;
76566;SDS011;65428;53.194;6.132;2023-05-10T21:19:57;17.52;;;13.18;;
76566;SDS011;65428;53.194;6.132;2023-05-10T21:22:23;15.73;;;13.23;;
76566;SDS011;65428;53.194;6.132;2023-05-10T21:24:48;18.02;;;12.95;;
76566;SDS011;65428;53.194;6.132;2023-05-10T21:27:14;19.13;;;13.40;;
76566;SDS011;65428;53.194;6.132;2023-05-10T21:29:40;24.67;;;14.47;;
76566;SDS011;65428;53.194;6.132;2023-05-10T21:32:05;15.63;;;12.15;;
76566;SDS011;65428;53.194;6.132;2023-05-10T21:34:31;52.27;;;12.83;;
76566;SDS011;65428;53.194;6.132;2023-05-10T21:36:59;24.83;;;12.17;;
76566;SDS011;65428;53.194;6.132;2023-05-10T21:39:25;28.05;;;12.20;;
76566;SDS011;65428;53.194;6.132;2023-05-10T21:41:51;26.27;;;10.70;;
76566;SDS011;65428;53.194;6.132;2023-05-10T21:44:16;31.60;;;10.07;;
76566;SDS011;65428;53.194;6.132;2023-05-10T21:46:42;14.67;;;9.13;;
76566;SDS011;65428;53.194;6.132;2023-05-10T21:49:08;11.45;;;9.02;;
76566;SDS011;65428;53.194;6.132;2023-05-10T21:51:34;16.30;;;8.75;;
76566;SDS011;65428;53.194;6.132;2023-05-10T21:54:00;16.30;;;9.07;;
76566;SDS011;65428;53.194;6.132;2023-05-10T21:56:25;22.77;;;9.57;;
76566;SDS011;65428;53.194;6.132;2023-05-10T21:58:51;22.07;;;9.20;;
76566;SDS011;65428;53.194;6.132;2023-05-10T22:01:17;14.60;;;9.13;;
76566;SDS011;65428;53.194;6.132;2023-05-10T22:03:43;20.40;;;9.73;;
76566;SDS011;65428;53.194;6.132;2023-05-10T22:06:08;10.90;;;9.10;;
76566;SDS011;65428;53.194;6.132;2023-05-10T22:08:34;16.77;;;9.35;;
76566;SDS011;65428;53.194;6.132;2023-05-10T22:11:00;15.15;;;8.43;;
76566;SDS011;65428;53.194;6.132;2023-05-10T22:13:26;54.53;;;7.47;;
76566;SDS011;65428;53.194;6.132;2023-05-10T22:15:51;13.27;;;7.18;;
76566;SDS011;65428;53.194;6.132;2023-05-10T22:18:17;24.42;;;7.53;;
76566;SDS011;65428;53.194;6.132;2023-05-10T22:20:43;50.40;;;9.30;;
76566;SDS011;65428;53.194;6.132;2023-05-10T22:23:10;24.38;;;7.95;;
76566;SDS011;65428;53.194;6.132;2023-05-10T22:25:36;11.27;;;7.30;;
76566;SDS011;65428;53.194;6.132;2023-05-10T22:28:02;10.80;;;7.40;;
76566;SDS011;65428;53.194;6.132;2023-05-10T22:30:27;9.60;;;7.43;;
76566;SDS011;65428;53.194;6.132;2023-05-10T22:32:53;8.35;;;7.00;;
76566;SDS011;65428;53.194;6.132;2023-05-10T22:35:19;9.10;;;6.40;;
76566;SDS011;65428;53.194;6.132;2023-05-10T22:37:45;10.68;;;6.43;;
76566;SDS011;65428;53.194;6.132;2023-05-10T22:40:10;11.07;;;6.85;;
76566;SDS011;65428;53.194;6.132;2023-05-10T22:42:36;8.80;;;6.30;;
76566;SDS011;65428;53.194;6.132;2023-05-10T22:45:02;13.37;;;7.60;;
76566;SDS011;65428;53.194;6.132;2023-05-10T22:47:28;10.40;;;6.78;;
76566;SDS011;65428;53.194;6.132;2023-05-10T22:49:54;11.43;;;7.78;;
76566;SDS011;65428;53.194;6.132;2023-05-10T22:52:22;9.20;;;7.25;;
76566;SDS011;65428;53.194;6.132;2023-05-10T22:54:48;7.47;;;6.50;;
76566;SDS011;65428;53.194;6.132;2023-05-10T22:57:13;8.27;;;6.57;;
76566;SDS011;65428;53.194;6.132;2023-05-10T22:59:40;8.10;;;6.88;;
76566;SDS011;65428;53.194;6.132;2023-05-10T23:02:06;8.02;;;6.55;;
76566;SDS011;65428;53.194;6.132;2023-05-10T23:04:32;7.88;;;6.53;;
76566;SDS011;65428;53.194;6.132;2023-05-10T23:06:58;8.98;;;6.32;;
76566;SDS011;65428;53.194;6.132;2023-05-10T23:09:23;10.30;;;6.90;;
76566;SDS011;65428;53.194;6.132;2023-05-10T23:11:49;9.40;;;7.10;;
76566;SDS011;65428;53.194;6.132;2023-05-10T23:14:15;9.35;;;6.72;;
76566;SDS011;65428;53.194;6.132;2023-05-10T23:16:40;12.13;;;7.23;;
76566;SDS011;65428;53.194;6.132;2023-05-10T23:19:06;10.23;;;7.40;;
76566;SDS011;65428;53.194;6.132;2023-05-10T23:21:32;10.13;;;7.60;;
76566;SDS011;65428;53.194;6.132;2023-05-10T23:23:58;10.77;;;7.80;;
76566;SDS011;65428;53.194;6.132;2023-05-10T23:26:24;14.33;;;8.37;;
76566;SDS011;65428;53.194;6.132;2023-05-10T23:28:49;10.43;;;7.10;;
76566;SDS011;65428;53.194;6.132;2023-05-10T23:31:18;12.10;;;6.53;;
76566;SDS011;65428;53.194;6.132;2023-05-10T23:33:43;8.03;;;6.37;;
76566;SDS011;65428;53.194;6.132;2023-05-10T23:36:09;11.23;;;6.50;;
76566;SDS011;65428;53.194;6.132;2023-05-10T23:38:36;8.40;;;6.23;;
76566;SDS011;65428;53.194;6.132;2023-05-10T23:41:02;10.30;;;6.87;;
76566;SDS011;65428;53.194;6.132;2023-05-10T23:43:28;9.67;;;5.43;;
76566;SDS011;65428;53.194;6.132;2023-05-10T23:45:54;7.60;;;5.97;;
76566;SDS011;65428;53.194;6.132;2023-05-10T23:48:20;10.00;;;5.97;;
76566;SDS011;65428;53.194;6.132;2023-05-10T23:50:46;7.70;;;5.90;;
76566;SDS011;65428;53.194;6.132;2023-05-10T23:53:12;7.43;;;5.97;;
76566;SDS011;65428;53.194;6.132;2023-05-10T23:55:38;8.40;;;6.28;;
76566;SDS011;65428;53.194;6.132;2023-05-10T23:58:03;9.20;;;6.33;;
